sensor_id;sensor_type;location;lat;lon;timestamp;temperature;humidity
59973;DHT22;55298;-36.624;-64.282;2023-08-17T00:01:02;11.90;77.70
59973;DHT22;55298;-36.624;-64.282;2023-08-17T00:03:32;11.90;77.50
59973;DHT22;55298;-36.624;-64.282;2023-08-17T00:05:59;11.80;77.20
59973;DHT22;55298;-36.624;-64.282;2023-08-17T00:08:27;11.80;77.30
59973;DHT22;55298;-36.624;-64.282;2023-08-17T00:10:55;11.70;77.20
59973;DHT22;55298;-36.624;-64.282;2023-08-17T00:13:23;11.70;77.30
59973;DHT22;55298;-36.624;-64.282;2023-08-17T00:15:51;11.60;77.70
59973;DHT22;55298;-36.624;-64.282;2023-08-17T00:18:19;11.60;77.80
59973;DHT22;55298;-36.624;-64.282;2023-08-17T00:20:48;11.60;77.80
59973;DHT22;55298;-36.624;-64.282;2023-08-17T00:23:19;11.50;77.90
59973;DHT22;55298;-36.624;-64.282;2023-08-17T00:25:48;11.50;78.20
59973;DHT22;55298;-36.624;-64.282;2023-08-17T00:28:16;11.40;78.30
59973;DHT22;55298;-36.624;-64.282;2023-08-17T00:30:44;11.40;78.20
59973;DHT22;55298;-36.624;-64.282;2023-08-17T00:33:12;11.40;78.20
59973;DHT22;55298;-36.624;-64.282;2023-08-17T00:35:39;11.40;78.20
59973;DHT22;55298;-36.624;-64.282;2023-08-17T00:38:07;11.40;78.20
59973;DHT22;55298;-36.624;-64.282;2023-08-17T00:40:35;11.30;78.30
59973;DHT22;55298;-36.624;-64.282;2023-08-17T00:43:04;11.20;78.50
59973;DHT22;55298;-36.624;-64.282;2023-08-17T00:45:33;11.10;78.60
59973;DHT22;55298;-36.624;-64.282;2023-08-17T00:48:02;11.10;78.80
59973;DHT22;55298;-36.624;-64.282;2023-08-17T00:50:35;11.00;79.00
59973;DHT22;55298;-36.624;-64.282;2023-08-17T00:53:05;11.00;79.00
59973;DHT22;55298;-36.624;-64.282;2023-08-17T00:55:33;10.90;79.20
59973;DHT22;55298;-36.624;-64.282;2023-08-17T00:58:01;10.80;79.40
59973;DHT22;55298;-36.624;-64.282;2023-08-17T01:00:29;10.80;79.40
59973;DHT22;55298;-36.624;-64.282;2023-08-17T01:02:58;10.80;79.60
59973;DHT22;55298;-36.624;-64.282;2023-08-17T01:05:26;10.80;79.80
59973;DHT22;55298;-36.624;-64.282;2023-08-17T01:07:54;10.70;80.00
59973;DHT22;55298;-36.624;-64.282;2023-08-17T01:10:43;10.70;80.20
59973;DHT22;55298;-36.624;-64.282;2023-08-17T01:13:21;10.60;80.40
59973;DHT22;55298;-36.624;-64.282;2023-08-17T01:15:55;10.50;81.40
59973;DHT22;55298;-36.624;-64.282;2023-08-17T01:18:28;10.60;80.80
59973;DHT22;55298;-36.624;-64.282;2023-08-17T01:21:04;10.50;80.80
59973;DHT22;55298;-36.624;-64.282;2023-08-17T01:23:33;10.50;80.80
59973;DHT22;55298;-36.624;-64.282;2023-08-17T01:26:02;10.50;80.80
59973;DHT22;55298;-36.624;-64.282;2023-08-17T01:28:30;10.40;80.80
59973;DHT22;55298;-36.624;-64.282;2023-08-17T01:31:05;10.40;80.70
59973;DHT22;55298;-36.624;-64.282;2023-08-17T01:33:50;10.40;80.80
59973;DHT22;55298;-36.624;-64.282;2023-08-17T01:36:27;10.30;80.80
59973;DHT22;55298;-36.624;-64.282;2023-08-17T01:38:58;10.30;80.70
59973;DHT22;55298;-36.624;-64.282;2023-08-17T01:41:27;10.30;80.50
59973;DHT22;55298;-36.624;-64.282;2023-08-17T01:43:55;10.40;80.20
59973;DHT22;55298;-36.624;-64.282;2023-08-17T01:46:24;10.40;80.80
59973;DHT22;55298;-36.624;-64.282;2023-08-17T01:48:52;10.50;79.70
59973;DHT22;55298;-36.624;-64.282;2023-08-17T01:51:22;10.50;79.50
59973;DHT22;55298;-36.624;-64.282;2023-08-17T01:53:49;10.40;79.20
59973;DHT22;55298;-36.624;-64.282;2023-08-17T01:56:17;10.50;79.30
59973;DHT22;55298;-36.624;-64.282;2023-08-17T01:58:45;10.50;80.20
59973;DHT22;55298;-36.624;-64.282;2023-08-17T02:01:13;10.50;79.50
59973;DHT22;55298;-36.624;-64.282;2023-08-17T02:03:41;10.60;79.00
59973;DHT22;55298;-36.624;-64.282;2023-08-17T02:06:08;10.60;78.90
59973;DHT22;55298;-36.624;-64.282;2023-08-17T02:08:37;10.60;78.80
59973;DHT22;55298;-36.624;-64.282;2023-08-17T02:11:06;10.60;79.10
59973;DHT22;55298;-36.624;-64.282;2023-08-17T02:13:33;10.70;79.30
59973;DHT22;55298;-36.624;-64.282;2023-08-17T02:16:04;10.60;79.50
59973;DHT22;55298;-36.624;-64.282;2023-08-17T02:18:32;10.60;79.80
59973;DHT22;55298;-36.624;-64.282;2023-08-17T02:21:01;10.60;80.30
59973;DHT22;55298;-36.624;-64.282;2023-08-17T02:23:29;10.50;80.90
59973;DHT22;55298;-36.624;-64.282;2023-08-17T02:25:57;10.60;81.40
59973;DHT22;55298;-36.624;-64.282;2023-08-17T02:28:24;10.60;81.70
59973;DHT22;55298;-36.624;-64.282;2023-08-17T02:31:00;10.60;81.80
59973;DHT22;55298;-36.624;-64.282;2023-08-17T02:33:27;10.60;81.50
59973;DHT22;55298;-36.624;-64.282;2023-08-17T02:35:55;10.60;81.60
59973;DHT22;55298;-36.624;-64.282;2023-08-17T02:38:23;10.60;81.80
59973;DHT22;55298;-36.624;-64.282;2023-08-17T02:40:51;10.60;82.20
59973;DHT22;55298;-36.624;-64.282;2023-08-17T02:43:19;10.60;82.50
59973;DHT22;55298;-36.624;-64.282;2023-08-17T02:45:47;10.50;83.00
59973;DHT22;55298;-36.624;-64.282;2023-08-17T02:48:14;10.50;83.60
59973;DHT22;55298;-36.624;-64.282;2023-08-17T02:50:42;10.50;84.10
59973;DHT22;55298;-36.624;-64.282;2023-08-17T02:53:10;10.50;84.40
59973;DHT22;55298;-36.624;-64.282;2023-08-17T02:55:38;10.60;84.80
59973;DHT22;55298;-36.624;-64.282;2023-08-17T02:58:06;10.60;85.90
59973;DHT22;55298;-36.624;-64.282;2023-08-17T03:00:34;10.60;86.60
59973;DHT22;55298;-36.624;-64.282;2023-08-17T03:03:01;10.70;88.20
59973;DHT22;55298;-36.624;-64.282;2023-08-17T03:05:29;10.80;90.40
59973;DHT22;55298;-36.624;-64.282;2023-08-17T03:07:57;10.70;92.50
59973;DHT22;55298;-36.624;-64.282;2023-08-17T03:10:25;10.70;92.90
59973;DHT22;55298;-36.624;-64.282;2023-08-17T03:12:53;10.80;93.20
59973;DHT22;55298;-36.624;-64.282;2023-08-17T03:15:20;10.80;93.30
59973;DHT22;55298;-36.624;-64.282;2023-08-17T03:17:48;10.80;93.20
59973;DHT22;55298;-36.624;-64.282;2023-08-17T03:20:16;10.70;93.10
59973;DHT22;55298;-36.624;-64.282;2023-08-17T03:22:44;10.70;92.90
59973;DHT22;55298;-36.624;-64.282;2023-08-17T03:25:11;10.70;93.20
59973;DHT22;55298;-36.624;-64.282;2023-08-17T03:27:39;10.70;93.40
59973;DHT22;55298;-36.624;-64.282;2023-08-17T03:30:07;10.70;93.70
59973;DHT22;55298;-36.624;-64.282;2023-08-17T03:32:36;10.60;94.10
59973;DHT22;55298;-36.624;-64.282;2023-08-17T03:35:04;10.60;94.40
59973;DHT22;55298;-36.624;-64.282;2023-08-17T03:37:32;10.60;94.80
59973;DHT22;55298;-36.624;-64.282;2023-08-17T03:40:00;10.50;95.40
59973;DHT22;55298;-36.624;-64.282;2023-08-17T03:42:28;10.50;95.70
59973;DHT22;55298;-36.624;-64.282;2023-08-17T03:44:56;10.50;96.00
59973;DHT22;55298;-36.624;-64.282;2023-08-17T03:47:24;10.50;96.10
59973;DHT22;55298;-36.624;-64.282;2023-08-17T03:49:52;10.50;96.20
59973;DHT22;55298;-36.624;-64.282;2023-08-17T03:52:20;10.50;96.40
59973;DHT22;55298;-36.624;-64.282;2023-08-17T03:54:48;10.40;96.70
59973;DHT22;55298;-36.624;-64.282;2023-08-17T03:57:15;10.40;96.80
59973;DHT22;55298;-36.624;-64.282;2023-08-17T03:59:43;10.40;96.90
59973;DHT22;55298;-36.624;-64.282;2023-08-17T04:02:11;10.40;96.70
59973;DHT22;55298;-36.624;-64.282;2023-08-17T04:04:38;10.40;96.80
59973;DHT22;55298;-36.624;-64.282;2023-08-17T04:07:06;10.50;96.60
59973;DHT22;55298;-36.624;-64.282;2023-08-17T04:09:34;10.40;96.70
59973;DHT22;55298;-36.624;-64.282;2023-08-17T04:12:02;10.40;96.70
59973;DHT22;55298;-36.624;-64.282;2023-08-17T04:14:31;10.30;97.00
59973;DHT22;55298;-36.624;-64.282;2023-08-17T04:16:59;10.30;97.40
59973;DHT22;55298;-36.624;-64.282;2023-08-17T04:19:27;10.30;97.80
59973;DHT22;55298;-36.624;-64.282;2023-08-17T04:21:54;10.20;97.90
59973;DHT22;55298;-36.624;-64.282;2023-08-17T04:24:22;10.20;97.90
59973;DHT22;55298;-36.624;-64.282;2023-08-17T04:26:50;10.30;98.00
59973;DHT22;55298;-36.624;-64.282;2023-08-17T04:29:17;10.30;97.90
59973;DHT22;55298;-36.624;-64.282;2023-08-17T04:31:45;10.30;98.10
59973;DHT22;55298;-36.624;-64.282;2023-08-17T04:34:13;10.30;98.50
59973;DHT22;55298;-36.624;-64.282;2023-08-17T04:36:41;10.30;99.10
59973;DHT22;55298;-36.624;-64.282;2023-08-17T04:39:09;10.20;99.00
59973;DHT22;55298;-36.624;-64.282;2023-08-17T04:41:37;10.30;99.20
59973;DHT22;55298;-36.624;-64.282;2023-08-17T04:44:04;10.30;99.20
59973;DHT22;55298;-36.624;-64.282;2023-08-17T04:46:32;10.40;99.40
59973;DHT22;55298;-36.624;-64.282;2023-08-17T04:49:00;10.40;99.60
59973;DHT22;55298;-36.624;-64.282;2023-08-17T04:51:28;10.20;99.90
59973;DHT22;55298;-36.624;-64.282;2023-08-17T04:53:59;10.20;99.90
59973;DHT22;55298;-36.624;-64.282;2023-08-17T04:56:27;10.20;99.90
59973;DHT22;55298;-36.624;-64.282;2023-08-17T04:58:55;10.20;99.90
59973;DHT22;55298;-36.624;-64.282;2023-08-17T05:01:23;10.30;99.90
59973;DHT22;55298;-36.624;-64.282;2023-08-17T05:03:50;10.30;99.90
59973;DHT22;55298;-36.624;-64.282;2023-08-17T05:06:18;10.40;99.90
59973;DHT22;55298;-36.624;-64.282;2023-08-17T05:08:46;10.30;99.90
59973;DHT22;55298;-36.624;-64.282;2023-08-17T05:11:14;10.30;99.90
59973;DHT22;55298;-36.624;-64.282;2023-08-17T05:13:41;10.20;99.90
59973;DHT22;55298;-36.624;-64.282;2023-08-17T05:16:09;10.30;99.90
59973;DHT22;55298;-36.624;-64.282;2023-08-17T05:18:37;10.20;99.90
59973;DHT22;55298;-36.624;-64.282;2023-08-17T05:21:05;10.20;99.90
59973;DHT22;55298;-36.624;-64.282;2023-08-17T05:23:33;10.10;99.90
59973;DHT22;55298;-36.624;-64.282;2023-08-17T05:26:01;10.10;99.90
59973;DHT22;55298;-36.624;-64.282;2023-08-17T05:28:29;10.00;99.90
59973;DHT22;55298;-36.624;-64.282;2023-08-17T05:31:02;10.00;99.90
59973;DHT22;55298;-36.624;-64.282;2023-08-17T05:33:30;10.00;99.90
59973;DHT22;55298;-36.624;-64.282;2023-08-17T05:35:58;9.90;99.90
59973;DHT22;55298;-36.624;-64.282;2023-08-17T05:38:25;9.80;99.90
59973;DHT22;55298;-36.624;-64.282;2023-08-17T05:40:57;9.90;99.90
59973;DHT22;55298;-36.624;-64.282;2023-08-17T05:43:26;9.90;99.90
59973;DHT22;55298;-36.624;-64.282;2023-08-17T05:45:53;9.90;99.90
59973;DHT22;55298;-36.624;-64.282;2023-08-17T05:48:21;9.90;99.90
59973;DHT22;55298;-36.624;-64.282;2023-08-17T05:50:50;9.90;99.90
59973;DHT22;55298;-36.624;-64.282;2023-08-17T05:53:18;9.80;99.90
59973;DHT22;55298;-36.624;-64.282;2023-08-17T05:55:45;9.70;99.90
59973;DHT22;55298;-36.624;-64.282;2023-08-17T05:58:13;9.60;99.90
59973;DHT22;55298;-36.624;-64.282;2023-08-17T06:00:41;9.50;99.90
59973;DHT22;55298;-36.624;-64.282;2023-08-17T06:03:09;9.30;99.90
59973;DHT22;55298;-36.624;-64.282;2023-08-17T06:05:37;9.30;99.90
59973;DHT22;55298;-36.624;-64.282;2023-08-17T06:08:05;9.20;99.90
59973;DHT22;55298;-36.624;-64.282;2023-08-17T06:10:33;9.20;99.90
59973;DHT22;55298;-36.624;-64.282;2023-08-17T06:13:01;9.10;99.90
59973;DHT22;55298;-36.624;-64.282;2023-08-17T06:15:28;9.10;99.90
59973;DHT22;55298;-36.624;-64.282;2023-08-17T06:17:56;9.10;99.90
59973;DHT22;55298;-36.624;-64.282;2023-08-17T06:20:24;9.00;99.90
59973;DHT22;55298;-36.624;-64.282;2023-08-17T06:22:52;9.00;99.90
59973;DHT22;55298;-36.624;-64.282;2023-08-17T06:25:19;9.00;99.90
59973;DHT22;55298;-36.624;-64.282;2023-08-17T06:27:49;8.80;99.90
59973;DHT22;55298;-36.624;-64.282;2023-08-17T06:30:17;9.00;99.90
59973;DHT22;55298;-36.624;-64.282;2023-08-17T06:32:45;8.90;99.90
59973;DHT22;55298;-36.624;-64.282;2023-08-17T06:35:13;8.90;99.90
59973;DHT22;55298;-36.624;-64.282;2023-08-17T06:37:40;8.90;99.90
59973;DHT22;55298;-36.624;-64.282;2023-08-17T06:40:09;8.90;99.90
59973;DHT22;55298;-36.624;-64.282;2023-08-17T06:42:37;8.80;99.90
59973;DHT22;55298;-36.624;-64.282;2023-08-17T06:45:07;8.70;99.90
59973;DHT22;55298;-36.624;-64.282;2023-08-17T06:47:35;8.70;99.90
59973;DHT22;55298;-36.624;-64.282;2023-08-17T06:50:03;8.90;99.90
59973;DHT22;55298;-36.624;-64.282;2023-08-17T06:52:30;8.70;99.90
59973;DHT22;55298;-36.624;-64.282;2023-08-17T06:54:58;8.70;99.90
59973;DHT22;55298;-36.624;-64.282;2023-08-17T06:57:25;8.70;99.90
59973;DHT22;55298;-36.624;-64.282;2023-08-17T06:59:53;8.70;99.90
59973;DHT22;55298;-36.624;-64.282;2023-08-17T07:02:21;8.70;99.90
59973;DHT22;55298;-36.624;-64.282;2023-08-17T07:04:49;8.70;99.90
59973;DHT22;55298;-36.624;-64.282;2023-08-17T07:07:18;8.60;99.90
59973;DHT22;55298;-36.624;-64.282;2023-08-17T07:09:45;8.60;99.90
59973;DHT22;55298;-36.624;-64.282;2023-08-17T07:12:13;8.60;99.90
59973;DHT22;55298;-36.624;-64.282;2023-08-17T07:14:41;8.60;99.90
59973;DHT22;55298;-36.624;-64.282;2023-08-17T07:17:08;8.40;99.90
59973;DHT22;55298;-36.624;-64.282;2023-08-17T07:19:36;8.40;99.90
59973;DHT22;55298;-36.624;-64.282;2023-08-17T07:22:04;8.20;99.90
59973;DHT22;55298;-36.624;-64.282;2023-08-17T07:24:33;8.10;99.90
59973;DHT22;55298;-36.624;-64.282;2023-08-17T07:27:01;8.00;99.90
59973;DHT22;55298;-36.624;-64.282;2023-08-17T07:29:28;8.00;99.90
59973;DHT22;55298;-36.624;-64.282;2023-08-17T07:31:56;8.10;99.90
59973;DHT22;55298;-36.624;-64.282;2023-08-17T07:34:29;8.10;99.90
59973;DHT22;55298;-36.624;-64.282;2023-08-17T07:37:03;8.10;99.90
59973;DHT22;55298;-36.624;-64.282;2023-08-17T07:39:33;7.90;99.90
59973;DHT22;55298;-36.624;-64.282;2023-08-17T07:42:01;7.90;99.90
59973;DHT22;55298;-36.624;-64.282;2023-08-17T07:44:28;7.80;99.90
59973;DHT22;55298;-36.624;-64.282;2023-08-17T07:46:58;7.70;99.90
59973;DHT22;55298;-36.624;-64.282;2023-08-17T07:49:28;7.70;99.90
59973;DHT22;55298;-36.624;-64.282;2023-08-17T07:51:55;7.70;99.90
59973;DHT22;55298;-36.624;-64.282;2023-08-17T07:54:24;7.60;99.90
59973;DHT22;55298;-36.624;-64.282;2023-08-17T07:56:51;7.60;99.90
59973;DHT22;55298;-36.624;-64.282;2023-08-17T07:59:19;7.60;99.90
59973;DHT22;55298;-36.624;-64.282;2023-08-17T08:01:46;7.60;99.90
59973;DHT22;55298;-36.624;-64.282;2023-08-17T08:04:15;7.50;99.90
59973;DHT22;55298;-36.624;-64.282;2023-08-17T08:06:43;7.70;99.90
59973;DHT22;55298;-36.624;-64.282;2023-08-17T08:09:11;7.50;99.90
59973;DHT22;55298;-36.624;-64.282;2023-08-17T08:11:39;7.60;99.90
59973;DHT22;55298;-36.624;-64.282;2023-08-17T08:14:06;7.60;99.90
59973;DHT22;55298;-36.624;-64.282;2023-08-17T08:16:34;7.50;99.90
59973;DHT22;55298;-36.624;-64.282;2023-08-17T08:19:02;7.50;99.90
59973;DHT22;55298;-36.624;-64.282;2023-08-17T08:21:30;7.40;99.90
59973;DHT22;55298;-36.624;-64.282;2023-08-17T08:23:58;7.50;99.90
59973;DHT22;55298;-36.624;-64.282;2023-08-17T08:26:25;7.30;99.90
59973;DHT22;55298;-36.624;-64.282;2023-08-17T08:28:53;7.40;99.90
59973;DHT22;55298;-36.624;-64.282;2023-08-17T08:31:22;7.50;99.90
59973;DHT22;55298;-36.624;-64.282;2023-08-17T08:33:50;7.40;99.90
59973;DHT22;55298;-36.624;-64.282;2023-08-17T08:36:20;7.50;99.90
59973;DHT22;55298;-36.624;-64.282;2023-08-17T08:38:50;7.50;99.90
59973;DHT22;55298;-36.624;-64.282;2023-08-17T08:41:18;7.60;99.90
59973;DHT22;55298;-36.624;-64.282;2023-08-17T08:43:46;7.50;99.90
59973;DHT22;55298;-36.624;-64.282;2023-08-17T08:46:16;7.60;99.90
59973;DHT22;55298;-36.624;-64.282;2023-08-17T08:48:47;7.60;99.90
59973;DHT22;55298;-36.624;-64.282;2023-08-17T08:51:19;7.60;99.90
59973;DHT22;55298;-36.624;-64.282;2023-08-17T08:53:52;7.60;99.90
59973;DHT22;55298;-36.624;-64.282;2023-08-17T08:56:23;7.60;99.90
59973;DHT22;55298;-36.624;-64.282;2023-08-17T08:58:52;7.70;99.90
59973;DHT22;55298;-36.624;-64.282;2023-08-17T09:01:20;7.80;99.90
59973;DHT22;55298;-36.624;-64.282;2023-08-17T09:03:49;7.90;99.90
59973;DHT22;55298;-36.624;-64.282;2023-08-17T09:06:17;7.90;99.90
59973;DHT22;55298;-36.624;-64.282;2023-08-17T09:08:46;8.00;99.90
59973;DHT22;55298;-36.624;-64.282;2023-08-17T09:11:15;8.00;99.90
59973;DHT22;55298;-36.624;-64.282;2023-08-17T09:13:43;8.00;99.90
59973;DHT22;55298;-36.624;-64.282;2023-08-17T09:16:11;8.00;99.90
59973;DHT22;55298;-36.624;-64.282;2023-08-17T09:18:38;8.00;99.90
59973;DHT22;55298;-36.624;-64.282;2023-08-17T09:21:06;8.00;99.90
59973;DHT22;55298;-36.624;-64.282;2023-08-17T09:23:34;8.10;99.90
59973;DHT22;55298;-36.624;-64.282;2023-08-17T09:26:08;8.00;99.90
59973;DHT22;55298;-36.624;-64.282;2023-08-17T09:28:39;8.00;99.90
59973;DHT22;55298;-36.624;-64.282;2023-08-17T09:31:07;8.20;99.90
59973;DHT22;55298;-36.624;-64.282;2023-08-17T09:33:35;8.20;99.90
59973;DHT22;55298;-36.624;-64.282;2023-08-17T09:36:03;8.20;99.90
59973;DHT22;55298;-36.624;-64.282;2023-08-17T09:38:31;8.20;99.90
59973;DHT22;55298;-36.624;-64.282;2023-08-17T09:41:00;8.10;99.90
59973;DHT22;55298;-36.624;-64.282;2023-08-17T09:43:27;8.10;99.90
59973;DHT22;55298;-36.624;-64.282;2023-08-17T09:45:57;8.10;99.90
59973;DHT22;55298;-36.624;-64.282;2023-08-17T09:48:26;8.00;99.90
59973;DHT22;55298;-36.624;-64.282;2023-08-17T09:50:56;8.00;99.90
59973;DHT22;55298;-36.624;-64.282;2023-08-17T09:53:26;8.00;99.90
59973;DHT22;55298;-36.624;-64.282;2023-08-17T09:55:54;8.00;99.90
59973;DHT22;55298;-36.624;-64.282;2023-08-17T09:58:24;8.00;99.90
59973;DHT22;55298;-36.624;-64.282;2023-08-17T10:00:53;8.10;99.90
59973;DHT22;55298;-36.624;-64.282;2023-08-17T10:03:21;8.10;99.90
59973;DHT22;55298;-36.624;-64.282;2023-08-17T10:05:57;8.00;99.90
59973;DHT22;55298;-36.624;-64.282;2023-08-17T10:08:30;8.10;99.90
59973;DHT22;55298;-36.624;-64.282;2023-08-17T10:10:59;8.10;99.90
59973;DHT22;55298;-36.624;-64.282;2023-08-17T10:13:46;8.00;99.90
59973;DHT22;55298;-36.624;-64.282;2023-08-17T10:16:23;8.00;99.90
59973;DHT22;55298;-36.624;-64.282;2023-08-17T10:18:57;8.00;99.90
59973;DHT22;55298;-36.624;-64.282;2023-08-17T10:21:34;8.00;99.90
59973;DHT22;55298;-36.624;-64.282;2023-08-17T10:24:04;8.00;99.90
59973;DHT22;55298;-36.624;-64.282;2023-08-17T10:26:33;8.00;99.90
59973;DHT22;55298;-36.624;-64.282;2023-08-17T10:29:02;8.00;99.90
59973;DHT22;55298;-36.624;-64.282;2023-08-17T10:31:34;8.00;99.90
59973;DHT22;55298;-36.624;-64.282;2023-08-17T10:34:04;8.10;99.90
59973;DHT22;55298;-36.624;-64.282;2023-08-17T10:36:44;8.00;99.90
59973;DHT22;55298;-36.624;-64.282;2023-08-17T10:39:26;7.70;99.90
59973;DHT22;55298;-36.624;-64.282;2023-08-17T10:41:57;8.10;99.90
59973;DHT22;55298;-36.624;-64.282;2023-08-17T10:44:49;8.10;99.90
59973;DHT22;55298;-36.624;-64.282;2023-08-17T10:47:32;8.10;99.90
59973;DHT22;55298;-36.624;-64.282;2023-08-17T10:50:27;8.10;99.90
59973;DHT22;55298;-36.624;-64.282;2023-08-17T10:53:33;8.10;99.90
59973;DHT22;55298;-36.624;-64.282;2023-08-17T10:56:07;8.10;99.90
59973;DHT22;55298;-36.624;-64.282;2023-08-17T10:58:36;8.10;99.90
59973;DHT22;55298;-36.624;-64.282;2023-08-17T11:01:03;8.10;99.90
59973;DHT22;55298;-36.624;-64.282;2023-08-17T11:03:31;8.10;99.90
59973;DHT22;55298;-36.624;-64.282;2023-08-17T11:06:16;8.20;99.90
59973;DHT22;55298;-36.624;-64.282;2023-08-17T11:08:54;8.10;99.90
59973;DHT22;55298;-36.624;-64.282;2023-08-17T11:11:23;8.00;99.90
59973;DHT22;55298;-36.624;-64.282;2023-08-17T11:13:53;8.00;99.90
59973;DHT22;55298;-36.624;-64.282;2023-08-17T11:16:21;8.00;99.90
59973;DHT22;55298;-36.624;-64.282;2023-08-17T11:18:50;8.00;99.90
59973;DHT22;55298;-36.624;-64.282;2023-08-17T11:21:19;7.90;99.90
59973;DHT22;55298;-36.624;-64.282;2023-08-17T11:23:47;7.80;99.90
59973;DHT22;55298;-36.624;-64.282;2023-08-17T11:26:18;7.80;99.90
59973;DHT22;55298;-36.624;-64.282;2023-08-17T11:28:46;7.80;99.90
59973;DHT22;55298;-36.624;-64.282;2023-08-17T11:31:18;7.80;99.90
59973;DHT22;55298;-36.624;-64.282;2023-08-17T11:33:46;7.70;99.90
59973;DHT22;55298;-36.624;-64.282;2023-08-17T11:36:14;7.70;99.90
59973;DHT22;55298;-36.624;-64.282;2023-08-17T11:38:43;7.70;99.90
59973;DHT22;55298;-36.624;-64.282;2023-08-17T11:41:12;7.70;99.90
59973;DHT22;55298;-36.624;-64.282;2023-08-17T11:43:42;7.70;99.90
59973;DHT22;55298;-36.624;-64.282;2023-08-17T11:46:14;7.70;99.90
59973;DHT22;55298;-36.624;-64.282;2023-08-17T11:48:44;7.60;99.90
59973;DHT22;55298;-36.624;-64.282;2023-08-17T11:51:15;7.60;99.90
59973;DHT22;55298;-36.624;-64.282;2023-08-17T11:53:45;7.60;99.90
59973;DHT22;55298;-36.624;-64.282;2023-08-17T11:56:16;7.50;99.90
59973;DHT22;55298;-36.624;-64.282;2023-08-17T11:58:45;7.50;99.90
59973;DHT22;55298;-36.624;-64.282;2023-08-17T12:01:14;7.50;99.90
59973;DHT22;55298;-36.624;-64.282;2023-08-17T12:03:43;7.60;99.90
59973;DHT22;55298;-36.624;-64.282;2023-08-17T12:06:11;7.60;99.90
59973;DHT22;55298;-36.624;-64.282;2023-08-17T12:08:49;7.70;99.90
59973;DHT22;55298;-36.624;-64.282;2023-08-17T12:11:18;7.60;99.90
59973;DHT22;55298;-36.624;-64.282;2023-08-17T12:13:51;7.60;99.90
59973;DHT22;55298;-36.624;-64.282;2023-08-17T12:16:21;7.70;99.90
59973;DHT22;55298;-36.624;-64.282;2023-08-17T12:18:51;7.60;99.90
59973;DHT22;55298;-36.624;-64.282;2023-08-17T12:21:41;7.60;99.90
59973;DHT22;55298;-36.624;-64.282;2023-08-17T12:24:12;7.80;99.90
59973;DHT22;55298;-36.624;-64.282;2023-08-17T12:26:43;7.70;99.90
59973;DHT22;55298;-36.624;-64.282;2023-08-17T12:29:11;7.70;99.90
59973;DHT22;55298;-36.624;-64.282;2023-08-17T12:34:05;7.80;99.90
59973;DHT22;55298;-36.624;-64.282;2023-08-17T12:36:37;7.90;99.90
59973;DHT22;55298;-36.624;-64.282;2023-08-17T12:39:05;7.90;99.90
59973;DHT22;55298;-36.624;-64.282;2023-08-17T12:41:33;8.00;99.90
59973;DHT22;55298;-36.624;-64.282;2023-08-17T12:44:02;8.10;99.90
59973;DHT22;55298;-36.624;-64.282;2023-08-17T12:46:31;8.20;99.90
59973;DHT22;55298;-36.624;-64.282;2023-08-17T12:49:01;8.20;99.90
59973;DHT22;55298;-36.624;-64.282;2023-08-17T12:51:32;8.40;99.90
59973;DHT22;55298;-36.624;-64.282;2023-08-17T12:54:00;8.50;99.90
59973;DHT22;55298;-36.624;-64.282;2023-08-17T12:56:29;8.50;99.90
59973;DHT22;55298;-36.624;-64.282;2023-08-17T12:58:57;8.50;99.90
59973;DHT22;55298;-36.624;-64.282;2023-08-17T13:01:28;8.50;99.90
59973;DHT22;55298;-36.624;-64.282;2023-08-17T13:03:55;8.60;99.90
59973;DHT22;55298;-36.624;-64.282;2023-08-17T13:06:23;8.70;99.90
59973;DHT22;55298;-36.624;-64.282;2023-08-17T13:08:51;9.00;99.90
59973;DHT22;55298;-36.624;-64.282;2023-08-17T13:11:21;8.90;99.90
59973;DHT22;55298;-36.624;-64.282;2023-08-17T13:13:50;9.00;99.90
59973;DHT22;55298;-36.624;-64.282;2023-08-17T13:16:17;9.10;99.90
59973;DHT22;55298;-36.624;-64.282;2023-08-17T13:18:45;9.40;99.90
59973;DHT22;55298;-36.624;-64.282;2023-08-17T13:21:13;9.40;99.90
59973;DHT22;55298;-36.624;-64.282;2023-08-17T13:23:43;9.60;99.90
59973;DHT22;55298;-36.624;-64.282;2023-08-17T13:26:14;9.60;99.90
59973;DHT22;55298;-36.624;-64.282;2023-08-17T13:28:42;9.80;99.90
59973;DHT22;55298;-36.624;-64.282;2023-08-17T13:31:10;9.80;99.90
59973;DHT22;55298;-36.624;-64.282;2023-08-17T13:33:38;9.80;99.90
59973;DHT22;55298;-36.624;-64.282;2023-08-17T13:36:06;9.80;99.90
59973;DHT22;55298;-36.624;-64.282;2023-08-17T13:38:38;9.90;99.90
59973;DHT22;55298;-36.624;-64.282;2023-08-17T13:41:09;10.00;99.90
59973;DHT22;55298;-36.624;-64.282;2023-08-17T13:43:38;10.00;99.90
59973;DHT22;55298;-36.624;-64.282;2023-08-17T13:46:16;10.10;99.90
59973;DHT22;55298;-36.624;-64.282;2023-08-17T13:48:43;10.10;99.90
59973;DHT22;55298;-36.624;-64.282;2023-08-17T13:51:11;10.10;99.90
59973;DHT22;55298;-36.624;-64.282;2023-08-17T13:53:40;10.20;99.90
59973;DHT22;55298;-36.624;-64.282;2023-08-17T13:56:09;10.40;99.90
59973;DHT22;55298;-36.624;-64.282;2023-08-17T13:58:39;10.50;99.90
59973;DHT22;55298;-36.624;-64.282;2023-08-17T14:01:07;10.70;99.90
59973;DHT22;55298;-36.624;-64.282;2023-08-17T14:03:35;10.70;99.90
59973;DHT22;55298;-36.624;-64.282;2023-08-17T14:06:03;10.60;99.90
59973;DHT22;55298;-36.624;-64.282;2023-08-17T14:08:31;10.80;99.90
59973;DHT22;55298;-36.624;-64.282;2023-08-17T14:10:58;10.90;99.90
59973;DHT22;55298;-36.624;-64.282;2023-08-17T14:13:27;10.80;99.90
59973;DHT22;55298;-36.624;-64.282;2023-08-17T14:15:55;10.80;99.90
59973;DHT22;55298;-36.624;-64.282;2023-08-17T14:18:26;10.80;99.90
59973;DHT22;55298;-36.624;-64.282;2023-08-17T14:20:54;10.80;99.90
59973;DHT22;55298;-36.624;-64.282;2023-08-17T14:23:22;10.90;99.90
59973;DHT22;55298;-36.624;-64.282;2023-08-17T14:25:50;11.00;99.90
59973;DHT22;55298;-36.624;-64.282;2023-08-17T14:28:19;11.10;99.90
59973;DHT22;55298;-36.624;-64.282;2023-08-17T14:30:47;11.10;99.90
59973;DHT22;55298;-36.624;-64.282;2023-08-17T14:33:15;11.30;99.90
59973;DHT22;55298;-36.624;-64.282;2023-08-17T14:35:43;11.20;99.90
59973;DHT22;55298;-36.624;-64.282;2023-08-17T14:38:11;11.20;99.90
59973;DHT22;55298;-36.624;-64.282;2023-08-17T14:40:45;11.30;99.90
59973;DHT22;55298;-36.624;-64.282;2023-08-17T14:43:13;11.10;99.90
59973;DHT22;55298;-36.624;-64.282;2023-08-17T14:45:43;11.10;99.90
59973;DHT22;55298;-36.624;-64.282;2023-08-17T14:48:11;11.00;99.90
59973;DHT22;55298;-36.624;-64.282;2023-08-17T14:50:39;10.90;99.90
59973;DHT22;55298;-36.624;-64.282;2023-08-17T14:53:07;10.90;99.90
59973;DHT22;55298;-36.624;-64.282;2023-08-17T14:55:36;11.00;99.90
59973;DHT22;55298;-36.624;-64.282;2023-08-17T14:58:03;11.00;99.90
59973;DHT22;55298;-36.624;-64.282;2023-08-17T15:00:32;10.90;99.90
59973;DHT22;55298;-36.624;-64.282;2023-08-17T15:03:00;10.90;99.90
59973;DHT22;55298;-36.624;-64.282;2023-08-17T15:05:28;10.80;99.90
59973;DHT22;55298;-36.624;-64.282;2023-08-17T15:07:57;10.80;99.90
59973;DHT22;55298;-36.624;-64.282;2023-08-17T15:10:25;10.90;99.90